Time;durP1;ratioP1;P1;durP2;ratioP2;P2;SDS_P1;SDS_P2;PMS_P1;PMS_P2;Temp;Humidity;BMP_temperature;BMP_pressure;BME280_temperature;BME280_humidity;BME280_pressure;Samples;Min_cycle;Max_cycle;Signal;HPM_P1;HPM_P2
2023/11/03 00:01:55;;;;;;;19.50;14.30;;;;;;;7.36;100.00;99878.91;88494;280;137604;-69
2023/11/03 00:03:58;;;;;;;17.40;13.60;;;;;;;7.32;100.00;99874.80;88518;273;22777;-68
2023/11/03 00:06:03;;;;;;;16.30;13.90;;;;;;;7.28;100.00;99875.06;88585;280;23746;-68
2023/11/03 00:08:05;;;;;;;14.10;12.40;;;;;;;7.27;100.00;99873.52;88570;278;137110;-71
2023/11/03 00:10:11;;;;;;;16.90;12.80;;;;;;;7.22;100.00;99864.15;88496;277;22531;-71
2023/11/03 00:12:13;;;;;;;26.70;15.30;;;;;;;7.24;100.00;99864.46;88564;273;138238;-67
2023/11/03 00:14:16;;;;;;;22.20;16.70;;;;;;;7.23;100.00;99863.71;88630;280;22527;-69
2023/11/03 00:16:18;;;;;;;17.20;14.60;;;;;;;7.22;100.00;99862.56;88488;280;136814;-70
2023/11/03 00:18:22;;;;;;;19.30;15.20;;;;;;;7.20;100.00;99863.92;88565;273;25211;-69
2023/11/03 00:20:24;;;;;;;17.80;15.10;;;;;;;7.18;100.00;99865.04;88427;281;136633;-70
2023/11/03 00:22:27;;;;;;;18.80;14.10;;;;;;;7.19;100.00;99871.73;88607;274;22599;-70
2023/11/03 00:24:30;;;;;;;17.30;13.20;;;;;;;7.18;100.00;99872.45;88516;281;136675;-69
2023/11/03 00:26:33;;;;;;;14.70;12.20;;;;;;;7.16;100.00;99876.05;88480;279;22556;-68
2023/11/03 00:28:35;;;;;;;17.10;12.80;;;;;;;7.11;100.00;99877.88;88549;281;136764;-71
2023/11/03 00:30:38;;;;;;;15.50;12.80;;;;;;;7.07;100.00;99880.16;88464;277;26850;-70
2023/11/03 00:32:40;;;;;;;15.80;12.40;;;;;;;7.02;100.00;99877.19;88480;274;136654;-69
2023/11/03 00:34:43;;;;;;;12.00;10.80;;;;;;;6.99;100.00;99880.02;88583;282;23546;-67
2023/11/03 00:36:49;;;;;;;13.80;12.50;;;;;;;6.95;100.00;99879.22;88509;280;136496;-71
2023/11/03 00:38:51;;;;;;;13.30;11.10;;;;;;;6.90;100.00;99877.14;88657;274;22560;-70
2023/11/03 00:40:52;;;;;;;17.80;12.80;;;;;;;6.87;100.00;99872.72;88517;281;136917;-68
2023/11/03 00:42:59;;;;;;;13.80;12.00;;;;;;;6.85;100.00;99873.36;88497;282;25204;-70
2023/11/03 00:45:01;;;;;;;17.40;12.60;;;;;;;6.75;100.00;99860.64;88391;280;136648;-68
2023/11/03 00:47:06;;;;;;;15.50;11.70;;;;;;;6.80;100.00;99879.65;88609;281;24028;-69
2023/11/03 00:49:09;;;;;;;16.30;11.90;;;;;;;6.78;100.00;99878.83;88436;282;136672;-70
2023/11/03 00:51:11;;;;;;;14.40;11.70;;;;;;;6.76;100.00;99886.66;88612;281;22714;-70
2023/11/03 00:53:12;;;;;;;13.40;12.00;;;;;;;6.73;100.00;99881.15;88465;282;137984;-69
2023/11/03 00:55:15;;;;;;;15.50;12.20;;;;;;;6.72;100.00;99884.56;88573;282;25076;-72
2023/11/03 00:57:17;;;;;;;16.70;13.20;;;;;;;6.69;100.00;99887.14;88578;277;138176;-68
2023/11/03 00:59:19;;;;;;;13.10;11.40;;;;;;;6.66;100.00;99884.61;88643;281;25262;-68
2023/11/03 01:01:21;;;;;;;16.40;12.10;;;;;;;6.66;100.00;99888.23;88461;275;137379;-71
2023/11/03 01:03:24;;;;;;;14.30;11.40;;;;;;;6.66;100.00;99884.98;88507;279;24708;-72
2023/11/03 01:05:25;;;;;;;14.50;11.80;;;;;;;6.66;100.00;99888.20;88544;274;136814;-72
2023/11/03 01:07:29;;;;;;;12.10;10.80;;;;;;;6.66;100.00;99886.73;88519;278;24173;-68
2023/11/03 01:09:31;;;;;;;13.20;11.00;;;;;;;6.67;100.00;99889.19;88507;274;136834;-72
2023/11/03 01:11:40;;;;;;;14.50;10.70;;;;;;;6.67;100.00;99889.65;88674;276;25307;-70
2023/11/03 01:13:43;;;;;;;13.10;10.80;;;;;;;6.68;100.00;99890.67;88437;280;136662;-69
2023/11/03 01:15:45;;;;;;;14.00;12.50;;;;;;;6.64;100.00;99885.48;88560;281;24054;-68
2023/11/03 01:17:49;;;;;;;15.60;13.20;;;;;;;6.68;100.00;99894.48;88537;278;136922;-72
2023/11/03 01:19:51;;;;;;;14.10;11.20;;;;;;;6.67;100.00;99894.06;88733;276;25159;-70
2023/11/03 01:21:53;;;;;;;12.80;10.60;;;;;;;6.67;100.00;99894.41;88312;275;136191;-70
2023/11/03 01:23:55;;;;;;;12.00;10.40;;;;;;;6.66;100.00;99889.09;88710;274;24027;-68
2023/11/03 01:25:57;;;;;;;17.30;12.10;;;;;;;6.65;100.00;99890.23;88434;280;138346;-70
2023/11/03 01:28:00;;;;;;;16.10;11.70;;;;;;;6.65;100.00;99892.55;88491;277;22541;-67
2023/11/03 01:30:04;;;;;;;14.70;12.10;;;;;;;6.64;100.00;99892.33;88424;281;136490;-69
2023/11/03 01:32:09;;;;;;;12.90;10.40;;;;;;;6.62;100.00;99892.89;88551;273;137140;-68
2023/11/03 01:34:11;;;;;;;14.30;11.70;;;;;;;6.61;100.00;99895.61;88475;282;24722;-66
2023/11/03 01:36:13;;;;;;;12.70;11.30;;;;;;;6.60;100.00;99893.23;88385;282;136892;-66
2023/11/03 01:38:15;;;;;;;15.20;11.30;;;;;;;6.60;100.00;99888.45;88520;282;25186;-68
2023/11/03 01:40:16;;;;;;;14.20;11.90;;;;;;;6.61;100.00;99885.17;88453;281;137125;-64
2023/11/03 01:42:19;;;;;;;17.10;11.90;;;;;;;6.59;100.00;99886.48;88507;281;22551;-67
2023/11/03 01:44:21;;;;;;;18.20;11.70;;;;;;;6.56;100.00;99886.67;88430;273;137293;-70
2023/11/03 01:46:23;;;;;;;14.30;10.70;;;;;;;6.52;100.00;99886.88;88465;281;22542;-69
2023/11/03 01:48:28;;;;;;;20.20;11.60;;;;;;;6.50;100.00;99890.66;88363;281;138588;-67
2023/11/03 01:50:30;;;;;;;13.40;12.00;;;;;;;6.47;100.00;99891.71;88542;281;25080;-71
2023/11/03 01:52:35;;;;;;;14.50;12.00;;;;;;;6.44;100.00;99894.40;88476;281;137032;-71
2023/11/03 01:54:38;;;;;;;19.20;12.20;;;;;;;6.40;100.00;99891.84;88583;281;25411;-71
2023/11/03 01:56:41;;;;;;;15.30;12.40;;;;;;;6.36;100.00;99893.11;88600;274;138408;-68
2023/11/03 01:58:43;;;;;;;14.60;11.70;;;;;;;6.33;100.00;99890.14;88567;281;22533;-69
2023/11/03 02:00:46;;;;;;;15.70;12.70;;;;;;;6.30;100.00;99893.64;88477;273;138121;-65
2023/11/03 02:02:49;;;;;;;13.80;11.10;;;;;;;6.28;100.00;99894.73;88758;273;23285;-69
2023/11/03 02:04:51;;;;;;;12.90;10.80;;;;;;;6.26;100.00;99897.95;88512;281;138829;-70
2023/11/03 02:06:53;;;;;;;19.20;11.70;;;;;;;6.23;100.00;99895.20;88546;274;22544;-68
2023/11/03 02:08:55;;;;;;;15.20;11.50;;;;;;;6.18;100.00;99894.71;88291;281;138051;-67
2023/11/03 02:10:57;;;;;;;15.60;12.90;;;;;;;6.14;100.00;99892.80;88471;281;22856;-70
2023/11/03 02:12:59;;;;;;;13.30;11.90;;;;;;;6.10;100.00;99892.96;88422;281;136653;-68
2023/11/03 02:15:01;;;;;;;15.60;12.40;;;;;;;6.08;100.00;99893.11;88778;280;22549;-67
2023/11/03 02:17:03;;;;;;;14.80;12.30;;;;;;;6.06;100.00;99893.84;88466;280;138791;-68
2023/11/03 02:19:10;;;;;;;12.50;10.70;;;;;;;6.03;100.00;99898.19;88556;277;24027;-69
2023/11/03 02:21:17;;;;;;;16.10;11.10;;;;;;;6.00;100.00;99900.60;88410;281;137044;-70
2023/11/03 02:23:19;;;;;;;15.90;12.60;;;;;;;5.99;100.00;99904.23;88549;281;22631;-68
2023/11/03 02:25:21;;;;;;;15.40;12.00;;;;;;;5.97;100.00;99906.27;88435;278;136938;-68
2023/11/03 02:27:23;;;;;;;16.50;12.20;;;;;;;5.95;100.00;99906.32;88563;280;24084;-70
2023/11/03 02:29:27;;;;;;;13.20;11.80;;;;;;;5.94;100.00;99906.73;88555;280;137021;-68
2023/11/03 02:31:28;;;;;;;13.40;12.00;;;;;;;5.94;100.00;99899.30;88572;275;25328;-71
2023/11/03 02:33:30;;;;;;;12.40;10.80;;;;;;;5.95;100.00;99900.13;88533;281;136694;-68
2023/11/03 02:35:32;;;;;;;13.60;12.10;;;;;;;5.96;100.00;99903.02;88557;274;25190;-64
2023/11/03 02:37:34;;;;;;;11.90;10.80;;;;;;;5.99;100.00;99905.48;88515;273;138603;-68
2023/11/03 02:39:38;;;;;;;11.80;10.60;;;;;;;6.05;100.00;99903.82;88896;281;25209;-72
2023/11/03 02:41:41;;;;;;;14.60;12.70;;;;;;;6.08;100.00;99903.45;88537;272;136992;-73
2023/11/03 02:43:43;;;;;;;11.80;10.60;;;;;;;6.10;100.00;99902.52;88651;275;25145;-70
2023/11/03 02:45:44;;;;;;;13.90;11.80;;;;;;;6.12;100.00;99901.14;88491;282;136596;-70
2023/11/03 02:47:47;;;;;;;13.40;10.50;;;;;;;6.13;100.00;99898.13;88535;277;24011;-67
2023/11/03 02:49:49;;;;;;;13.60;12.10;;;;;;;6.15;100.00;99900.36;88492;277;136964;-70
2023/11/03 02:51:51;;;;;;;12.70;11.40;;;;;;;6.17;100.00;99901.75;88554;281;25117;-67
2023/11/03 02:53:52;;;;;;;17.10;12.20;;;;;;;6.19;100.00;99902.73;88424;282;136835;-69
2023/11/03 02:55:55;;;;;;;16.30;12.30;;;;;;;6.21;100.00;99901.14;88586;273;25094;-68
2023/11/03 02:57:57;;;;;;;17.20;11.80;;;;;;;6.23;100.00;99901.43;88495;277;136847;-70
2023/11/03 02:59:58;;;;;;;15.50;12.30;;;;;;;6.25;100.00;99905.31;88597;273;22534;-68
2023/11/03 03:02:03;;;;;;;14.30;12.80;;;;;;;6.26;100.00;99907.31;88360;273;136773;-68
2023/11/03 03:04:07;;;;;;;12.40;11.10;;;;;;;6.28;100.00;99910.52;88439;273;137225;-71
2023/11/03 03:06:09;;;;;;;13.90;11.50;;;;;;;6.29;100.00;99908.91;88726;280;22638;-68
2023/11/03 03:08:10;;;;;;;13.30;11.40;;;;;;;6.32;100.00;99910.86;88398;277;137031;-66
2023/11/03 03:10:13;;;;;;;13.20;11.40;;;;;;;6.32;100.00;99908.54;88480;273;25191;-69
2023/11/03 03:12:16;;;;;;;13.80;11.40;;;;;;;6.34;100.00;99904.48;88336;274;136876;-69
2023/11/03 03:14:18;;;;;;;13.30;11.30;;;;;;;6.35;100.00;99907.16;89852;275;22554;-69
2023/11/03 03:16:21;;;;;;;13.60;11.90;;;;;;;6.37;100.00;99909.39;88436;280;137014;-71
2023/11/03 03:18:23;;;;;;;12.90;11.60;;;;;;;6.40;100.00;99907.56;88659;280;22542;-73
2023/11/03 03:20:25;;;;;;;14.10;12.10;;;;;;;6.41;100.00;99906.70;88772;280;137092;-71
2023/11/03 03:22:27;;;;;;;15.40;12.70;;;;;;;6.42;100.00;99907.48;88542;275;22543;-69
2023/11/03 03:24:29;;;;;;;16.80;13.10;;;;;;;6.43;100.00;99907.18;88455;279;137733;-69
2023/11/03 03:26:37;;;;;;;18.20;14.10;;;;;;;6.44;100.00;99911.97;88631;272;23715;-73
2023/11/03 03:28:40;;;;;;;15.00;13.40;;;;;;;6.47;100.00;99906.44;88567;272;138316;-70
2023/11/03 03:30:43;;;;;;;13.90;12.40;;;;;;;6.47;100.00;99905.47;88851;275;23980;-72
2023/11/03 03:32:46;;;;;;;15.00;12.80;;;;;;;6.47;100.00;99904.05;88464;281;138455;-72
2023/11/03 03:34:48;;;;;;;16.70;13.80;;;;;;;6.50;100.00;99903.90;88457;275;22541;-69
2023/11/03 03:36:50;;;;;;;16.40;12.70;;;;;;;6.51;100.00;99903.30;88342;272;136831;-69
2023/11/03 03:38:52;;;;;;;18.60;13.50;;;;;;;6.49;100.00;99900.45;88568;273;25101;-74
2023/11/03 03:40:53;;;;;;;14.30;12.60;;;;;;;6.49;100.00;99899.80;88426;281;136653;-74
2023/11/03 03:42:56;;;;;;;18.20;13.90;;;;;;;6.48;100.00;99896.39;88499;273;22569;-74
2023/11/03 03:45:00;;;;;;;15.30;13.50;;;;;;;6.49;100.00;99901.64;88482;281;137091;-73
2023/11/03 03:47:02;;;;;;;18.10;13.70;;;;;;;6.48;100.00;99904.14;88563;273;22621;-75
2023/11/03 03:49:04;;;;;;;15.20;11.40;;;;;;;6.48;100.00;99904.70;88390;273;136805;-75
2023/11/03 03:51:06;;;;;;;17.30;11.80;;;;;;;6.44;100.00;99905.09;88847;276;22624;-77
2023/11/03 03:53:08;;;;;;;16.60;12.80;;;;;;;6.40;100.00;99903.91;88434;274;138239;-73
2023/11/03 03:55:11;;;;;;;14.50;11.10;;;;;;;6.39;100.00;99902.46;88562;280;23771;-76
2023/11/03 03:57:13;;;;;;;12.60;11.20;;;;;;;6.38;100.00;99900.11;88501;277;138541;-75
2023/11/03 03:59:15;;;;;;;13.10;11.10;;;;;;;6.35;100.00;99888.80;88664;274;22933;-75
2023/11/03 04:01:16;;;;;;;14.00;11.50;;;;;;;6.34;100.00;99888.98;88630;278;137017;-74
2023/11/03 04:03:20;;;;;;;15.00;11.80;;;;;;;6.33;100.00;99887.80;88641;280;22531;-75
2023/11/03 04:05:22;;;;;;;14.00;12.50;;;;;;;6.32;100.00;99888.05;88380;273;137249;-74
2023/11/03 04:07:24;;;;;;;14.00;11.40;;;;;;;6.31;100.00;99882.80;88565;274;22535;-76
2023/11/03 04:09:29;;;;;;;11.90;10.60;;;;;;;6.27;100.00;99882.28;88542;281;137008;-73
2023/11/03 04:11:33;;;;;;;11.10;10.00;;;;;;;6.26;100.00;99881.55;88573;281;26120;-72
2023/11/03 04:13:35;;;;;;;12.00;10.80;;;;;;;6.23;100.00;99881.15;88248;275;138012;-73
2023/11/03 04:15:37;;;;;;;12.00;10.80;;;;;;;6.20;100.00;99875.44;88362;279;22602;-73
2023/11/03 04:17:40;;;;;;;14.00;11.10;;;;;;;6.19;100.00;99875.45;88459;277;136973;-74
2023/11/03 04:19:41;;;;;;;15.10;10.60;;;;;;;6.18;100.00;99872.40;88509;273;24052;-71
2023/11/03 04:21:44;;;;;;;14.40;10.40;;;;;;;6.19;100.00;99877.90;88803;276;136928;-76
2023/11/03 04:23:48;;;;;;;10.70;9.70;;;;;;;6.20;100.00;99880.08;88708;279;25080;-75
2023/11/03 04:25:53;;;;;;;12.20;10.80;;;;;;;6.18;100.00;99880.02;88471;280;136783;-79
2023/11/03 04:27:55;;;;;;;12.10;10.40;;;;;;;6.13;100.00;99879.77;88583;277;23865;-75
2023/11/03 04:29:57;;;;;;;12.40;11.10;;;;;;;6.08;100.00;99880.41;88618;273;136817;-75
2023/11/03 04:31:58;;;;;;;13.30;10.80;;;;;;;6.01;100.00;99883.34;88581;279;27531;-73
2023/11/03 04:34:00;;;;;;;13.10;10.80;;;;;;;5.95;100.00;99880.59;88417;280;137211;-75
2023/11/03 04:36:03;;;;;;;15.90;11.80;;;;;;;5.92;100.00;99878.73;88471;281;25135;-79
2023/11/03 04:38:06;;;;;;;12.20;10.80;;;;;;;5.89;100.00;99880.95;88718;275;23746;-81
2023/11/03 04:40:10;;;;;;;11.80;10.10;;;;;;;5.86;100.00;99879.55;88767;277;137046;-70
2023/11/03 04:42:12;;;;;;;12.80;11.00;;;;;;;5.87;100.00;99879.11;89425;274;22781;-70
2023/11/03 04:44:13;;;;;;;13.20;10.50;;;;;;;5.87;100.00;99876.66;88480;279;137900;-77
2023/11/03 04:46:15;;;;;;;12.50;10.50;;;;;;;5.90;100.00;99876.70;88657;276;25227;-76
2023/11/03 04:48:17;;;;;;;11.80;10.50;;;;;;;5.92;100.00;99877.02;88514;272;137392;-76
2023/11/03 04:50:19;;;;;;;14.20;12.30;;;;;;;5.94;100.00;99872.71;88454;282;22540;-75
2023/11/03 04:52:21;;;;;;;14.50;11.70;;;;;;;5.96;100.00;99868.77;88450;274;137110;-78
2023/11/03 04:54:23;;;;;;;17.10;13.20;;;;;;;5.98;100.00;99867.00;88577;282;22537;-75
2023/11/03 04:56:25;;;;;;;20.30;12.50;;;;;;;6.00;100.00;99869.95;88788;277;137329;-79
2023/11/03 04:58:27;;;;;;;18.30;13.10;;;;;;;6.00;100.00;99872.96;88655;273;26168;-79
2023/11/03 05:00:29;;;;;;;17.30;12.10;;;;;;;5.99;100.00;99872.30;88502;281;136809;-81
2023/11/03 05:02:31;;;;;;;11.80;10.10;;;;;;;6.00;100.00;99870.30;88040;275;25412;-83
2023/11/03 05:04:33;;;;;;;12.30;10.80;;;;;;;5.98;100.00;99873.48;88395;277;137039;-78
2023/11/03 05:06:37;;;;;;;11.90;10.70;;;;;;;5.95;100.00;99879.99;88414;273;24000;-73
2023/11/03 05:08:40;;;;;;;13.50;11.90;;;;;;;5.90;100.00;99883.04;88316;280;137120;-79
2023/11/03 05:10:42;;;;;;;16.80;11.00;;;;;;;5.87;100.00;99880.52;89582;273;25124;-73
2023/11/03 05:12:44;;;;;;;12.20;10.20;;;;;;;5.87;100.00;99886.02;89046;281;137003;-77
2023/11/03 05:14:46;;;;;;;12.40;10.80;;;;;;;5.87;100.00;99883.05;88544;273;22516;-75
2023/11/03 05:16:47;;;;;;;15.20;11.00;;;;;;;5.86;100.00;99885.73;87963;275;137313;-74
2023/11/03 05:18:49;;;;;;;12.20;11.10;;;;;;;5.85;100.00;99884.27;88177;273;24169;-77
2023/11/03 05:20:51;;;;;;;11.60;10.40;;;;;;;5.86;100.00;99885.73;88070;273;138197;-77
2023/11/03 05:22:53;;;;;;;13.40;11.70;;;;;;;5.85;100.00;99876.30;89036;273;23706;-77
2023/11/03 05:24:55;;;;;;;12.70;10.20;;;;;;;6.17;100.00;99890.33;88906;273;136785;-77
2023/11/03 05:26:57;;;;;;;14.50;11.10;;;;;;;6.55;100.00;99890.64;88218;273;24552;-78
2023/11/03 05:28:58;;;;;;;13.70;11.60;;;;;;;7.02;100.00;99890.30;89038;273;136850;-70
2023/11/03 05:31:00;;;;;;;15.70;11.50;;;;;;;7.44;100.00;99888.80;89087;273;22537;-74
2023/11/03 05:33:04;;;;;;;10.90;9.80;;;;;;;7.84;100.00;99893.45;88133;273;136981;-77
2023/11/03 05:35:07;;;;;;;11.50;9.80;;;;;;;8.23;100.00;99899.48;88550;273;22516;-78
2023/11/03 05:37:10;;;;;;;10.10;8.50;;;;;;;8.56;100.00;99899.64;88211;273;136990;-80
2023/11/03 05:39:12;;;;;;;9.90;8.90;;;;;;;8.77;100.00;99907.38;89326;273;24170;-76
2023/11/03 05:41:14;;;;;;;9.90;8.70;;;;;;;8.86;100.00;99906.05;89265;273;137492;-78
2023/11/03 05:43:16;;;;;;;10.60;8.40;;;;;;;8.82;100.00;99907.11;88616;273;23473;-72
2023/11/03 05:45:18;;;;;;;10.20;9.10;;;;;;;8.63;100.00;99901.61;89769;275;138203;-74
2023/11/03 05:47:19;;;;;;;9.60;8.70;;;;;;;8.43;100.00;99902.41;89767;281;22519;-77
2023/11/03 05:49:21;;;;;;;9.30;8.30;;;;;;;8.23;100.00;99900.25;90283;275;136686;-75
2023/11/03 05:51:26;;;;;;;9.00;8.00;;;;;;;8.07;100.00;99899.34;90346;281;23005;-70
2023/11/03 05:53:28;;;;;;;9.90;8.40;;;;;;;7.85;100.00;99887.20;90591;281;136467;-71
2023/11/03 05:55:29;;;;;;;8.00;7.20;;;;;;;7.82;100.00;99900.82;90501;278;23743;-80
2023/11/03 05:57:31;;;;;;;9.40;7.90;;;;;;;7.65;100.00;99881.95;89991;277;136475;-75
2023/11/03 05:59:33;;;;;;;12.20;8.80;;;;;;;7.67;100.00;99891.84;90078;277;22672;-72
2023/11/03 06:01:35;;;;;;;9.00;7.90;;;;;;;7.62;100.00;99888.50;89097;277;138164;-70
2023/11/03 06:03:38;;;;;;;12.80;9.00;;;;;;;7.64;100.00;99889.35;88348;274;23820;-71
2023/11/03 06:05:40;;;;;;;12.00;9.20;;;;;;;7.63;100.00;99886.56;88391;273;137055;-74
2023/11/03 06:07:41;;;;;;;13.10;10.70;;;;;;;7.60;100.00;99883.21;89003;277;22533;-69
2023/11/03 06:09:43;;;;;;;12.50;10.30;;;;;;;7.56;100.00;99881.52;88064;273;137234;-75
2023/11/03 06:11:45;;;;;;;12.40;9.40;;;;;;;7.56;100.00;99878.55;88274;274;22523;-72
2023/11/03 06:13:47;;;;;;;12.10;10.40;;;;;;;7.50;100.00;99882.90;88069;274;139009;-73
2023/11/03 06:15:49;;;;;;;10.90;9.10;;;;;;;7.49;100.00;99882.75;88383;275;22801;-83
2023/11/03 06:17:51;;;;;;;10.10;9.10;;;;;;;7.48;100.00;99875.38;89098;277;136982;-76
2023/11/03 06:19:52;;;;;;;9.30;7.90;;;;;;;7.48;100.00;99872.98;88972;274;25783;-76
2023/11/03 06:21:54;;;;;;;8.90;7.70;;;;;;;7.49;100.00;99871.05;88953;273;137700;-76
2023/11/03 06:23:56;;;;;;;8.80;7.90;;;;;;;7.53;100.00;99864.02;88940;273;25637;-78
2023/11/03 06:25:58;;;;;;;11.50;8.60;;;;;;;7.59;100.00;99862.96;88940;279;136312;-79
2023/11/03 06:27:59;;;;;;;12.50;9.50;;;;;;;7.67;100.00;99864.59;88383;277;682445;-77
2023/11/03 06:30:01;;;;;;;9.50;8.50;;;;;;;7.74;100.00;99860.31;88900;281;137832;-77
2023/11/03 06:32:04;;;;;;;12.60;9.10;;;;;;;7.80;100.00;99861.89;88183;281;137110;-79
2023/11/03 06:34:05;;;;;;;12.70;9.40;;;;;;;7.74;100.00;99852.54;88592;280;25265;-81
2023/11/03 06:36:08;;;;;;;8.70;7.70;;;;;;;7.85;100.00;99865.29;88414;276;137515;-76
2023/11/03 06:38:09;;;;;;;11.90;9.10;;;;;;;7.86;100.00;99864.61;88970;281;22634;-75
2023/11/03 06:40:11;;;;;;;10.90;9.20;;;;;;;7.92;100.00;99861.70;88808;281;137776;-77
2023/11/03 06:42:13;;;;;;;11.20;9.20;;;;;;;7.91;100.00;99861.69;88463;281;22525;-81
2023/11/03 06:44:15;;;;;;;11.50;10.00;;;;;;;8.00;100.00;99868.58;89177;281;138660;-77
2023/11/03 06:46:17;;;;;;;12.70;9.70;;;;;;;8.03;100.00;99865.10;89139;281;23241;-76
2023/11/03 06:48:18;;;;;;;10.90;9.40;;;;;;;8.07;100.00;99867.31;88769;273;137209;-79
2023/11/03 06:50:20;;;;;;;9.70;8.70;;;;;;;8.10;100.00;99862.63;88809;273;22777;-75
2023/11/03 06:52:22;;;;;;;10.20;7.90;;;;;;;8.15;100.00;99852.41;88910;278;136914;-76
2023/11/03 06:54:25;;;;;;;10.00;8.50;;;;;;;8.23;100.00;99861.61;88691;275;26139;-76
2023/11/03 06:56:28;;;;;;;8.80;7.90;;;;;;;8.30;100.00;99855.98;88508;273;159791;-79
2023/11/03 06:58:29;;;;;;;7.90;7.00;;;;;;;8.35;100.00;99855.64;88768;273;22534;-80
2023/11/03 07:00:31;;;;;;;9.10;6.80;;;;;;;8.41;100.00;99853.40;88576;277;136984;-77
2023/11/03 07:02:35;;;;;;;8.40;6.60;;;;;;;8.46;100.00;99854.13;88627;275;22545;-78
2023/11/03 07:04:38;;;;;;;13.70;7.80;;;;;;;8.51;100.00;99857.41;88868;273;136771;-75
2023/11/03 07:06:40;;;;;;;8.00;7.30;;;;;;;8.58;100.00;99852.96;88624;279;25182;-78
2023/11/03 07:08:43;;;;;;;8.40;7.20;;;;;;;8.67;100.00;99861.31;88872;277;136488;-82
2023/11/03 07:10:45;;;;;;;10.40;7.00;;;;;;;8.73;100.00;99863.72;88615;277;24014;-80
2023/11/03 07:12:47;;;;;;;9.90;7.00;;;;;;;8.76;100.00;99857.69;88882;273;136806;-74
2023/11/03 07:14:50;;;;;;;7.90;7.10;;;;;;;8.82;100.00;99853.30;89646;280;24014;-74
2023/11/03 07:16:53;;;;;;;8.10;7.00;;;;;;;8.88;100.00;99850.17;89506;276;136673;-79
2023/11/03 07:18:56;;;;;;;9.80;7.30;;;;;;;8.96;100.00;99856.79;89629;274;25204;-76
2023/11/03 07:20:57;;;;;;;8.00;7.20;;;;;;;9.04;100.00;99864.72;89082;277;136727;-75
2023/11/03 07:22:59;;;;;;;6.80;6.20;;;;;;;9.09;100.00;99858.30;89407;282;22516;-76
2023/11/03 07:25:02;;;;;;;9.80;7.60;;;;;;;9.16;100.00;99867.29;89153;280;137000;-76
2023/11/03 07:27:04;;;;;;;6.60;5.90;;;;;;;9.24;100.00;99864.81;89335;275;25154;-79
2023/11/03 07:29:06;;;;;;;6.90;6.30;;;;;;;9.30;100.00;99864.10;88687;281;136818;-74
2023/11/03 07:31:11;;;;;;;6.80;5.80;;;;;;;9.35;100.00;99862.51;89061;281;24172;-74
2023/11/03 07:33:13;;;;;;;9.60;5.70;;;;;;;9.40;100.00;99862.58;88713;281;136411;-77
2023/11/03 07:35:16;;;;;;;7.80;7.00;;;;;;;9.46;100.00;99865.13;88436;277;23309;-75
2023/11/03 07:37:18;;;;;;;6.40;5.80;;;;;;;9.50;100.00;99864.11;88340;281;136667;-75
2023/11/03 07:39:21;;;;;;;10.00;5.90;;;;;;;9.51;100.00;99862.76;88456;281;22563;-71
2023/11/03 07:41:24;;;;;;;6.90;6.20;;;;;;;9.50;100.00;99869.55;88541;281;136621;-82
2023/11/03 07:43:26;;;;;;;9.30;6.60;;;;;;;9.52;100.00;99868.83;88674;276;23605;-79
2023/11/03 07:45:28;;;;;;;7.10;6.10;;;;;;;9.55;100.00;99866.05;88410;273;136719;-75
2023/11/03 07:47:30;;;;;;;6.80;6.20;;;;;;;9.57;100.00;99874.80;88798;277;22543;-77
2023/11/03 07:49:32;;;;;;;7.80;5.10;;;;;;;9.64;100.00;99880.50;88433;274;136537;-79
2023/11/03 07:51:35;;;;;;;7.80;5.20;;;;;;;9.67;100.00;99878.64;88530;274;23746;-78
2023/11/03 07:53:36;;;;;;;6.00;5.20;;;;;;;9.69;100.00;99873.80;88433;273;136419;-73
2023/11/03 07:55:38;;;;;;;6.80;6.10;;;;;;;9.73;100.00;99878.44;88768;273;22554;-79
2023/11/03 07:57:43;;;;;;;7.20;5.10;;;;;;;9.77;100.00;99877.77;88414;280;137048;-79
2023/11/03 07:59:46;;;;;;;5.80;5.30;;;;;;;9.81;100.00;99884.52;88533;273;24049;-83
2023/11/03 08:01:48;;;;;;;6.10;4.90;;;;;;;9.85;100.00;99884.78;88867;277;136956;-80
2023/11/03 08:03:50;;;;;;;7.80;6.00;;;;;;;9.91;100.00;99881.00;88871;280;22549;-77
2023/11/03 08:05:53;;;;;;;7.20;6.50;;;;;;;10.00;100.00;99880.37;88766;277;136630;-77
2023/11/03 08:07:55;;;;;;;6.50;5.80;;;;;;;10.06;100.00;99879.50;88667;274;24221;-72
2023/11/03 08:09:56;;;;;;;6.90;6.10;;;;;;;10.11;100.00;99876.38;88871;273;137828;-79
2023/11/03 08:11:58;;;;;;;6.80;6.20;;;;;;;10.15;100.00;99882.52;88996;282;22556;-76
2023/11/03 08:14:00;;;;;;;8.10;6.80;;;;;;;10.20;100.00;99882.08;88705;273;138890;-76
2023/11/03 08:16:06;;;;;;;6.60;6.00;;;;;;;10.26;100.00;99882.94;88873;274;25214;-76
2023/11/03 08:18:09;;;;;;;5.60;5.10;;;;;;;10.33;100.00;99884.50;89019;273;22616;-77
2023/11/03 08:20:13;;;;;;;6.30;5.70;;;;;;;10.40;100.00;99875.69;88726;279;136860;-75
2023/11/03 08:22:16;;;;;;;6.40;5.70;;;;;;;10.39;100.00;99872.37;89106;280;25064;-78
2023/11/03 08:24:17;;;;;;;6.40;5.80;;;;;;;10.40;100.00;99872.70;88482;273;137205;-70
2023/11/03 08:26:19;;;;;;;6.40;5.80;;;;;;;10.42;100.00;99869.52;88495;273;24098;-80
2023/11/03 08:28:21;;;;;;;6.50;5.80;;;;;;;10.47;100.00;99874.36;88200;277;136951;-79
2023/11/03 08:30:24;;;;;;;7.20;6.60;;;;;;;10.52;100.00;99860.90;88449;273;22531;-76
2023/11/03 08:32:26;;;;;;;5.90;5.40;;;;;;;10.61;100.00;99865.35;88619;273;136707;-75
2023/11/03 08:34:29;;;;;;;6.10;5.60;;;;;;;10.67;100.00;99871.32;88454;273;23974;-75
2023/11/03 08:36:32;;;;;;;6.80;5.20;;;;;;;10.71;100.00;99862.39;89150;281;136679;-80
2023/11/03 08:38:36;;;;;;;6.00;5.20;;;;;;;10.77;100.00;99864.13;88436;274;22557;-78
2023/11/03 08:40:38;;;;;;;5.60;5.10;;;;;;;10.81;100.00;99863.06;88771;281;136777;-81
2023/11/03 08:42:40;;;;;;;5.50;4.90;;;;;;;10.84;100.00;99853.32;88391;275;25087;-75
2023/11/03 08:44:41;;;;;;;7.30;5.80;;;;;;;10.86;100.00;99838.60;88451;281;137048;-76
2023/11/03 08:46:43;;;;;;;6.30;5.00;;;;;;;10.89;100.00;99852.77;88552;277;22656;-74
2023/11/03 08:48:45;;;;;;;5.10;4.60;;;;;;;10.88;100.00;99851.77;88955;273;136937;-78
2023/11/03 08:50:49;;;;;;;8.40;5.00;;;;;;;10.83;100.00;99847.50;89110;277;22534;-79
2023/11/03 08:52:50;;;;;;;7.10;5.10;;;;;;;10.80;100.00;99838.42;89585;274;137585;-78
2023/11/03 08:54:52;;;;;;;5.40;5.00;;;;;;;10.78;100.00;99833.98;88945;280;25080;-79
2023/11/03 08:56:54;;;;;;;6.10;5.60;;;;;;;10.79;100.00;99827.63;88611;278;137303;-75
2023/11/03 08:58:56;;;;;;;5.60;5.20;;;;;;;10.85;100.00;99832.44;88554;274;23032;-81
2023/11/03 09:00:58;;;;;;;6.00;5.40;;;;;;;10.94;100.00;99832.21;88986;273;136850;-79
2023/11/03 09:03:03;;;;;;;6.00;5.30;;;;;;;11.01;100.00;99828.05;89410;281;22536;-81
2023/11/03 09:05:09;;;;;;;4.50;4.10;;;;;;;11.04;100.00;99837.20;88632;273;137042;-76
2023/11/03 09:07:13;;;;;;;5.80;4.20;;;;;;;11.07;100.00;99824.60;89112;281;22491;-80
2023/11/03 09:09:15;;;;;;;4.20;3.90;;;;;;;11.08;100.00;99812.53;88621;273;139783;-72
2023/11/03 09:11:18;;;;;;;5.10;4.70;;;;;;;11.12;100.00;99820.37;89089;280;25511;-80
2023/11/03 09:13:20;;;;;;;4.80;4.40;;;;;;;11.18;100.00;99817.52;88814;280;136159;-82
2023/11/03 09:15:22;;;;;;;4.40;4.10;;;;;;;11.16;100.00;99797.81;88663;280;23878;-81
2023/11/03 09:17:27;;;;;;;4.60;4.20;;;;;;;11.30;100.00;99799.61;88454;280;136113;-73
2023/11/03 09:19:29;;;;;;;3.70;3.40;;;;;;;11.29;100.00;99799.65;88675;281;22806;-80
2023/11/03 09:21:31;;;;;;;4.50;4.10;;;;;;;11.23;100.00;99792.80;88518;281;136146;-77
2023/11/03 09:23:33;;;;;;;6.40;4.20;;;;;;;11.22;100.00;99782.63;88779;281;25121;-83
2023/11/03 09:25:35;;;;;;;4.90;4.20;;;;;;;11.24;100.00;99786.55;88403;282;136082;-78
2023/11/03 09:27:38;;;;;;;6.60;4.40;;;;;;;11.28;100.00;99785.86;88592;281;25204;-80
2023/11/03 09:29:41;;;;;;;6.70;4.20;;;;;;;11.32;100.00;99792.14;88748;281;136716;-79
2023/11/03 09:31:43;;;;;;;4.40;3.20;;;;;;;11.31;99.88;99785.20;89453;275;25400;-78